createdAt,value
2022-12-15T00:00:49.379Z,96679.80
2022-12-15T00:03:47.775Z,96684.13
2022-12-15T00:06:34.705Z,96682.67
2022-12-15T00:09:25.183Z,96693.64
2022-12-15T00:12:14.360Z,96697.26
2022-12-15T00:15:01.388Z,96700.91
2022-12-15T00:17:48.305Z,96709.63
2022-12-15T00:20:35.315Z,96718.67
2022-12-15T00:23:30.748Z,96718.63
2022-12-15T00:26:17.540Z,96715.05
2022-12-15T00:29:04.145Z,96717.94
2022-12-15T00:31:51.004Z,96723.92
2022-12-15T00:34:37.473Z,96724.21
2022-12-15T00:37:24.374Z,96716.31
2022-12-15T00:39:59.420Z,96710.33
2022-12-15T00:42:28.919Z,96714.23
2022-12-15T00:44:57.506Z,96714.41
2022-12-15T00:47:26.079Z,96716.06
2022-12-15T00:50:12.688Z,96719.69
2022-12-15T00:52:59.705Z,96719.82
2022-12-15T00:55:46.616Z,96719.23
2022-12-15T00:58:33.852Z,96723.89
2022-12-15T01:01:28.474Z,96723.98
2022-12-15T01:04:15.929Z,96718.96
2022-12-15T01:07:03.692Z,96716.27
2022-12-15T01:09:50.815Z,96718.39
2022-12-15T01:12:38.094Z,96718.17
2022-12-15T01:15:27.313Z,96716.19
2022-12-15T01:18:14.217Z,96712.52
2022-12-15T01:20:42.693Z,96706.73
2022-12-15T01:23:10.868Z,96700.43
2022-12-15T01:25:39.825Z,96709.29
2022-12-15T01:28:08.650Z,96718.30
2022-12-15T01:30:37.032Z,96718.63
2022-12-15T01:33:05.346Z,96712.34
2022-12-15T01:35:33.484Z,96714.02
2022-12-15T01:38:02.165Z,96707.33
2022-12-15T01:40:46.036Z,96705.84
2022-12-15T01:43:22.437Z,96706.08
2022-12-15T01:46:12.312Z,96709.89
2022-12-15T01:48:47.618Z,96722.37
2022-12-15T01:51:18.569Z,96727.20
2022-12-15T01:54:12.541Z,96735.38
2022-12-15T01:56:46.531Z,96742.52
2022-12-15T01:59:23.305Z,96740.01
2022-12-15T02:01:51.726Z,96740.52
2022-12-15T02:04:22.928Z,96740.79
2022-12-15T02:06:53.041Z,96738.49
2022-12-15T02:09:25.625Z,96734.88
2022-12-15T02:11:59.619Z,96734.27
2022-12-15T02:15:12.049Z,96729.52
2022-12-15T02:18:09.168Z,96722.15
2022-12-15T02:20:52.430Z,96714.85
2022-12-15T02:23:48.262Z,96717.77
2022-12-15T02:26:52.702Z,96730.50
2022-12-15T02:30:07.543Z,96729.58
2022-12-15T02:32:58.467Z,96739.30
2022-12-15T02:35:58.086Z,96741.46
2022-12-15T02:38:39.138Z,96736.53
2022-12-15T02:41:37.044Z,96741.52
2022-12-15T02:44:42.354Z,96739.81
2022-12-15T02:47:29.373Z,96735.00
2022-12-15T02:50:19.052Z,96734.23
2022-12-15T02:53:29.150Z,96735.46
2022-12-15T02:55:57.382Z,96735.42
2022-12-15T02:59:19.725Z,96731.79
2022-12-15T03:02:06.165Z,96734.70
2022-12-15T03:04:37.276Z,96736.29
2022-12-15T03:07:10.055Z,96737.10
2022-12-15T03:09:38.485Z,96737.06
2022-12-15T03:12:08.056Z,96738.03
2022-12-15T03:14:36.418Z,96741.92
2022-12-15T03:17:07.360Z,96743.05
2022-12-15T03:19:35.380Z,96743.41
2022-12-15T03:22:04.532Z,96743.10
2022-12-15T03:24:32.622Z,96749.57
2022-12-15T03:27:01.078Z,96748.66
2022-12-15T03:29:29.561Z,96754.11
2022-12-15T03:31:57.729Z,96762.02
2022-12-15T03:34:26.423Z,96767.17
2022-12-15T03:36:54.704Z,96772.88
2022-12-15T03:39:23.181Z,96779.09
2022-12-15T03:41:51.659Z,96779.81
2022-12-15T03:44:19.833Z,96781.20
2022-12-15T03:46:48.316Z,96786.50
2022-12-15T03:49:16.337Z,96779.93
2022-12-15T03:51:45.278Z,96774.80
2022-12-15T03:54:14.278Z,96782.98
2022-12-15T03:56:42.838Z,96788.77
2022-12-15T03:59:11.045Z,96792.62
2022-12-15T04:01:46.247Z,96791.16
2022-12-15T04:04:14.610Z,96792.38
2022-12-15T04:06:42.943Z,96789.16
2022-12-15T04:09:11.203Z,96787.92
2022-12-15T04:11:39.377Z,96790.28
2022-12-15T04:14:09.404Z,96789.64
2022-12-15T04:16:37.690Z,96791.59
2022-12-15T04:19:24.386Z,96788.95
2022-12-15T04:21:53.168Z,96792.39
2022-12-15T04:24:40.365Z,96791.23
2022-12-15T04:27:27.155Z,96790.85
2022-12-15T04:30:14.060Z,96787.27
2022-12-15T04:33:01.107Z,96788.66
2022-12-15T04:35:52.756Z,96791.23
2022-12-15T04:38:49.893Z,96799.04
2022-12-15T04:41:39.933Z,96800.09
2022-12-15T04:44:27.723Z,96792.27
2022-12-15T04:47:14.436Z,96794.55
2022-12-15T04:50:01.096Z,96796.83
2022-12-15T04:52:48.362Z,96798.37
2022-12-15T04:55:35.378Z,96807.15
2022-12-15T04:58:27.839Z,96807.31
2022-12-15T05:01:16.944Z,96805.95
2022-12-15T05:04:03.890Z,96814.30
2022-12-15T05:06:50.761Z,96824.50
2022-12-15T05:09:37.679Z,96827.73
2022-12-15T05:12:24.540Z,96829.33
2022-12-15T05:15:11.349Z,96831.59
2022-12-15T05:17:59.173Z,96835.94
2022-12-15T05:20:46.102Z,96832.40
2022-12-15T05:23:37.756Z,96835.48
2022-12-15T05:26:28.015Z,96841.80
2022-12-15T05:29:14.751Z,96843.63
2022-12-15T05:31:52.326Z,96855.13
2022-12-15T05:34:30.482Z,96864.94
2022-12-15T05:37:00.552Z,96873.69
2022-12-15T05:39:29.553Z,96877.95
2022-12-15T05:41:57.984Z,96875.49
2022-12-15T05:44:26.761Z,96872.35
2022-12-15T05:46:55.028Z,96866.92
2022-12-15T05:49:23.513Z,96871.14
2022-12-15T05:51:52.971Z,96874.06
2022-12-15T05:54:21.454Z,96884.70
2022-12-15T05:56:50.253Z,96885.90
2022-12-15T05:59:19.494Z,96883.42
2022-12-15T06:01:47.806Z,96883.63
2022-12-15T06:04:16.596Z,96875.71
2022-12-15T06:06:44.809Z,96875.80
2022-12-15T06:09:14.864Z,96878.38
2022-12-15T06:11:43.979Z,96890.25
2022-12-15T06:14:12.168Z,96902.19
2022-12-15T06:16:50.359Z,96912.08
2022-12-15T06:19:20.319Z,96919.48
2022-12-15T06:21:48.906Z,96918.63
2022-12-15T06:24:17.257Z,96927.73
2022-12-15T06:26:46.459Z,96938.37
2022-12-15T06:29:18.728Z,96943.08
2022-12-15T06:31:47.073Z,96951.92
2022-12-15T06:34:17.268Z,96964.11
2022-12-15T06:36:45.937Z,96967.48
2022-12-15T06:39:16.163Z,96972.09
2022-12-15T06:41:45.281Z,96974.31
2022-12-15T06:44:16.024Z,96974.92
2022-12-15T06:46:46.228Z,96976.70
2022-12-15T06:49:14.988Z,96987.17
2022-12-15T06:51:44.232Z,96986.60
2022-12-15T06:54:13.162Z,96995.15
2022-12-15T06:56:42.380Z,96999.56
2022-12-15T06:59:11.807Z,96997.95
2022-12-15T07:01:41.701Z,96989.05
2022-12-15T07:04:11.332Z,96983.89
2022-12-15T07:06:40.427Z,96984.84
2022-12-15T07:09:16.136Z,96992.91
2022-12-15T07:11:46.310Z,96999.96
2022-12-15T07:14:14.429Z,97006.05
2022-12-15T07:16:42.773Z,97021.48
2022-12-15T07:19:14.573Z,97030.96
2022-12-15T07:21:42.949Z,97035.08
2022-12-15T07:24:12.964Z,97037.76
2022-12-15T07:26:41.958Z,97035.41
2022-12-15T07:29:10.641Z,97040.86
2022-12-15T07:31:38.957Z,97051.52
2022-12-15T07:34:07.398Z,97059.56
2022-12-15T07:36:35.759Z,97064.75
2022-12-15T07:39:05.327Z,97073.27
2022-12-15T07:41:33.766Z,97077.98
2022-12-15T07:44:02.671Z,97088.18
2022-12-15T07:46:30.987Z,97085.69
2022-12-15T07:48:59.617Z,97088.04
2022-12-15T07:51:27.898Z,97095.33
2022-12-15T07:53:56.172Z,97094.19
2022-12-15T07:56:24.651Z,97091.73
2022-12-15T07:58:53.233Z,97089.31
2022-12-15T08:01:21.715Z,97093.61
2022-12-15T08:03:50.226Z,97087.19
2022-12-15T08:06:18.420Z,97082.08
2022-12-15T08:08:50.704Z,97088.79
2022-12-15T08:11:22.913Z,97089.45
2022-12-15T08:14:10.382Z,97094.40
2022-12-15T08:16:39.998Z,97095.39
2022-12-15T08:19:15.317Z,97091.79
2022-12-15T08:21:46.767Z,97089.52
2022-12-15T08:24:15.736Z,97096.36
2022-12-15T08:26:44.492Z,97106.15
2022-12-15T08:32:07.542Z,97121.73
2022-12-15T08:34:35.871Z,97125.00
2022-12-15T08:37:03.961Z,97133.70
2022-12-15T08:39:32.174Z,97137.43
2022-12-15T08:42:00.456Z,97140.13
2022-12-15T08:44:28.671Z,97137.37
2022-12-15T08:46:56.900Z,97137.61
2022-12-15T08:49:25.821Z,97141.16
2022-12-15T08:51:54.017Z,97142.72
2022-12-15T08:54:22.185Z,97148.05
2022-12-15T08:56:50.372Z,97150.39
2022-12-15T08:59:19.554Z,97150.29
2022-12-15T09:01:48.153Z,97155.40
2022-12-15T09:04:16.944Z,97155.38
2022-12-15T09:06:50.259Z,97155.34
2022-12-15T09:09:19.555Z,97155.12
2022-12-15T09:11:49.041Z,97153.77
2022-12-15T09:14:22.787Z,97150.81
2022-12-15T09:16:53.869Z,97146.68
2022-12-15T09:19:22.056Z,97137.43
2022-12-15T09:21:50.329Z,97140.23
2022-12-15T09:24:28.783Z,97143.15
2022-12-15T09:27:03.373Z,97146.21
2022-12-15T09:29:32.449Z,97149.52
2022-12-15T09:32:00.645Z,97153.02
2022-12-15T09:34:29.010Z,97154.30
2022-12-15T09:36:57.105Z,97153.95
2022-12-15T09:39:25.425Z,97158.91
2022-12-15T09:41:59.498Z,97160.02
2022-12-15T09:44:32.135Z,97150.48
2022-12-15T09:47:28.702Z,97145.95
2022-12-15T09:50:01.811Z,97139.42
2022-12-15T09:53:00.582Z,97143.27
2022-12-15T09:55:32.848Z,97149.86
2022-12-15T10:01:05.960Z,97147.34
2022-12-15T10:04:07.789Z,97146.17
2022-12-15T10:06:52.893Z,97146.31
2022-12-15T10:09:29.729Z,97156.95
2022-12-15T10:12:07.201Z,97164.98
2022-12-15T10:14:38.087Z,97165.77
2022-12-15T10:17:26.528Z,97168.45
2022-12-15T10:20:22.984Z,97168.23
2022-12-15T10:22:51.538Z,97160.20
2022-12-15T10:25:29.667Z,97156.64
2022-12-15T10:28:17.096Z,97169.45
2022-12-15T10:30:56.425Z,97175.80
2022-12-15T10:33:29.169Z,97182.20
2022-12-15T10:35:57.706Z,97185.73
2022-12-15T10:38:38.007Z,97180.70
2022-12-15T10:41:17.813Z,97190.56
2022-12-15T10:43:50.251Z,97201.20
2022-12-15T10:46:22.800Z,97200.39
2022-12-15T10:48:57.110Z,97196.93
2022-12-15T10:51:44.090Z,97194.58
2022-12-15T10:54:15.939Z,97195.27
2022-12-15T10:56:55.085Z,97190.45
2022-12-15T10:59:23.155Z,97192.81
2022-12-15T11:01:52.417Z,97195.58
2022-12-15T11:04:36.447Z,97199.55
2022-12-15T11:07:18.192Z,97200.46
2022-12-15T11:09:48.640Z,97199.23
2022-12-15T11:12:41.540Z,97192.16
2022-12-15T11:15:21.816Z,97179.89
2022-12-15T11:17:55.405Z,97180.38
2022-12-15T11:20:34.564Z,97185.02
2022-12-15T11:23:12.179Z,97190.42
2022-12-15T11:25:47.157Z,97190.97
2022-12-15T11:28:22.749Z,97194.29
2022-12-15T11:31:06.275Z,97198.75
2022-12-15T11:33:35.287Z,97201.23
2022-12-15T11:36:10.197Z,97203.98
2022-12-15T11:38:52.865Z,97208.37
2022-12-15T11:41:48.462Z,97212.02
2022-12-15T11:44:28.491Z,97214.64
2022-12-15T11:47:34.556Z,97210.83
2022-12-15T11:50:26.785Z,97213.10
2022-12-15T11:53:20.360Z,97219.80
2022-12-15T11:56:27.440Z,97227.23
2022-12-15T11:59:20.910Z,97239.07
2022-12-15T12:02:10.562Z,97246.61
2022-12-15T12:05:13.928Z,97247.96
2022-12-15T12:08:34.321Z,97250.13
2022-12-15T12:11:25.641Z,97251.67
2022-12-15T12:14:15.956Z,97249.46
2022-12-15T12:16:54.591Z,97249.28
2022-12-15T12:19:52.585Z,97249.48
2022-12-15T12:22:30.323Z,97248.74
2022-12-15T12:25:03.094Z,97243.37
2022-12-15T12:28:03.675Z,97241.38
2022-12-15T12:30:48.707Z,97240.99
2022-12-15T12:33:40.610Z,97243.75
2022-12-15T12:36:12.499Z,97251.00
2022-12-15T12:38:50.742Z,97255.75
2022-12-15T12:41:50.086Z,97259.57
2022-12-15T12:44:27.365Z,97256.65
2022-12-15T12:46:57.368Z,97259.65
2022-12-15T12:49:42.622Z,97266.23
2022-12-15T12:52:32.220Z,97272.66
2022-12-15T12:55:08.026Z,97272.56
2022-12-15T12:57:43.462Z,97269.79
2022-12-15T13:00:16.545Z,97264.40
2022-12-15T13:02:55.987Z,97256.50
2022-12-15T13:05:31.815Z,97255.66
2022-12-15T13:08:05.967Z,97256.48
2022-12-15T13:10:43.105Z,97255.37
2022-12-15T13:13:41.965Z,97256.80
2022-12-15T13:16:24.412Z,97252.08
2022-12-15T13:19:03.681Z,97259.41
2022-12-15T13:21:41.854Z,97259.64
2022-12-15T13:24:35.690Z,97251.61
2022-12-15T13:27:11.461Z,97246.21
2022-12-15T13:30:15.195Z,97252.26
2022-12-15T13:33:18.429Z,97247.50
2022-12-15T13:35:46.786Z,97253.31
2022-12-15T13:38:19.164Z,97253.92
2022-12-15T13:40:47.412Z,97264.05
2022-12-15T13:43:27.692Z,97268.11
2022-12-15T13:46:00.294Z,97277.17
2022-12-15T13:48:53.869Z,97280.83
2022-12-15T13:51:34.585Z,97283.45
2022-12-15T13:54:24.275Z,97282.76
2022-12-15T13:57:05.286Z,97285.91
2022-12-15T13:59:33.416Z,97285.79
2022-12-15T14:02:01.706Z,97282.31
2022-12-15T14:04:30.068Z,97286.81
2022-12-15T14:07:02.835Z,97289.00
2022-12-15T14:09:36.453Z,97291.17
2022-12-15T14:12:10.829Z,97289.36
2022-12-15T14:14:48.991Z,97291.14
2022-12-15T14:17:20.094Z,97288.89
2022-12-15T14:19:51.261Z,97290.69
2022-12-15T14:22:29.107Z,97287.34
2022-12-15T14:25:24.887Z,97284.05
2022-12-15T14:27:52.957Z,97294.54
2022-12-15T14:30:28.366Z,97295.65
2022-12-15T14:33:15.317Z,97299.80
2022-12-15T14:35:55.377Z,97303.03
2022-12-15T14:38:35.113Z,97296.98
2022-12-15T14:41:05.130Z,97301.61
2022-12-15T14:43:39.252Z,97303.08
2022-12-15T14:46:17.161Z,97297.56
2022-12-15T14:49:04.775Z,97293.98
2022-12-15T14:51:53.061Z,97305.05
2022-12-15T14:55:00.841Z,97307.73
2022-12-15T14:57:45.179Z,97302.96
2022-12-15T15:00:50.316Z,97314.82
2022-12-15T15:03:03.658Z,97147.36
2022-12-15T15:03:26.485Z,97320.73
2022-12-15T15:06:02.663Z,97326.54
2022-12-15T15:08:36.748Z,97332.89
2022-12-15T15:11:23.467Z,97334.18
2022-12-15T15:13:56.891Z,97331.02
2022-12-15T15:16:25.585Z,97343.48
2022-12-15T15:18:56.484Z,97352.17
2022-12-15T15:21:29.811Z,97357.23
2022-12-15T15:24:03.063Z,97361.02
2022-12-15T15:26:32.074Z,97368.12
2022-12-15T15:29:00.857Z,97370.09
2022-12-15T15:31:41.475Z,97370.12
2022-12-15T15:34:11.484Z,97358.70
2022-12-15T15:36:40.022Z,97353.41
2022-12-15T15:39:16.209Z,97347.91
2022-12-15T15:41:44.887Z,97347.06
2022-12-15T15:44:15.651Z,97353.58
2022-12-15T15:46:51.452Z,97353.46
2022-12-15T15:49:22.084Z,97351.87
2022-12-15T15:51:50.550Z,97347.85
2022-12-15T15:54:23.683Z,97343.80
2022-12-15T15:56:51.827Z,97343.95
2022-12-15T15:59:21.606Z,97350.77
2022-12-15T16:01:55.775Z,97349.84
2022-12-15T16:04:25.329Z,97363.44
2022-12-15T16:06:54.207Z,97367.39
2022-12-15T16:09:24.795Z,97368.98
2022-12-15T16:11:53.675Z,97378.21
2022-12-15T16:14:21.746Z,97384.39
2022-12-15T16:16:50.249Z,97384.14
2022-12-15T16:19:18.506Z,97379.50
2022-12-15T16:21:50.980Z,97375.09
2022-12-15T16:24:19.478Z,97366.20
2022-12-15T16:26:50.604Z,97365.87
2022-12-15T16:29:21.927Z,97363.11
2022-12-15T16:31:50.251Z,97359.64
2022-12-15T16:34:19.379Z,97365.79
2022-12-15T16:36:48.217Z,97372.55
2022-12-15T16:39:34.869Z,97385.17
2022-12-15T16:42:03.201Z,97383.45
2022-12-15T16:44:31.388Z,97381.95
2022-12-15T16:46:59.711Z,97385.90
2022-12-15T16:49:33.849Z,97391.02
2022-12-15T16:52:06.443Z,97390.42
2022-12-15T16:54:34.829Z,97392.39
2022-12-15T16:57:03.798Z,97390.59
2022-12-15T16:59:34.003Z,97386.13
2022-12-15T17:02:24.453Z,97375.90
2022-12-15T17:04:55.218Z,97382.77
2022-12-15T17:07:27.830Z,97382.73
2022-12-15T17:09:56.786Z,97381.86
2022-12-15T17:12:25.115Z,97383.09
2022-12-15T17:14:53.327Z,97386.05
2022-12-15T17:17:21.468Z,97393.25
2022-12-15T17:20:32.684Z,97390.19
2022-12-15T17:22:38.773Z,97380.77
2022-12-15T17:25:20.188Z,97375.32
2022-12-15T17:27:56.336Z,97376.31
2022-12-15T17:30:24.403Z,97380.39
2022-12-15T17:32:52.601Z,97380.78
2022-12-15T17:35:21.486Z,97384.23
2022-12-15T17:37:49.968Z,97382.16
2022-12-15T17:40:23.334Z,97382.66
2022-12-15T17:42:51.540Z,97378.52
2022-12-15T17:45:24.649Z,97377.64
2022-12-15T17:47:53.014Z,97383.54
2022-12-15T17:50:21.184Z,97380.63
2022-12-15T17:52:49.225Z,97380.27
2022-12-15T17:55:25.097Z,97380.59
2022-12-15T17:57:55.906Z,97378.46
2022-12-15T18:00:28.533Z,97370.64
2022-12-15T18:02:59.237Z,97367.33
2022-12-15T18:05:30.552Z,97366.66
2022-12-15T18:08:04.274Z,97372.57
2022-12-15T18:10:37.387Z,97381.84
2022-12-15T18:13:20.316Z,97380.16
2022-12-15T18:15:49.359Z,97386.21
2022-12-15T18:18:20.985Z,97385.02
2022-12-15T18:20:52.494Z,97371.79
2022-12-15T18:23:30.660Z,97374.70
2022-12-15T18:26:02.916Z,97382.69
2022-12-15T18:28:34.719Z,97375.42
2022-12-15T18:31:15.076Z,97366.59
2022-12-15T18:33:44.615Z,97368.02
2022-12-15T18:36:14.043Z,97370.29
2022-12-15T18:38:43.092Z,97376.29
2022-12-15T18:41:18.161Z,97372.51
2022-12-15T18:43:47.973Z,97370.50
2022-12-15T18:46:17.394Z,97364.61
2022-12-15T18:48:46.175Z,97360.48
2022-12-15T18:51:22.424Z,97361.60
2022-12-15T18:53:50.524Z,97361.69
2022-12-15T18:56:21.700Z,97367.30
2022-12-15T18:58:50.125Z,97367.89
2022-12-15T19:01:18.760Z,97373.57
2022-12-15T19:03:47.397Z,97381.67
2022-12-15T19:06:36.054Z,97389.74
2022-12-15T19:09:11.589Z,97386.80
2022-12-15T19:11:40.075Z,97384.64
2022-12-15T19:14:34.571Z,97382.56
2022-12-15T19:17:21.358Z,97375.87
2022-12-15T19:20:08.546Z,97371.42
2022-12-15T19:22:36.695Z,97370.42
2022-12-15T19:25:06.094Z,97372.80
2022-12-15T19:27:34.263Z,97369.02
2022-12-15T19:30:13.993Z,97362.33
2022-12-15T19:32:42.476Z,97364.29
2022-12-15T19:35:12.283Z,97367.57
2022-12-15T19:37:44.623Z,97373.73
2022-12-15T19:40:30.641Z,97375.63
2022-12-15T19:43:00.291Z,97371.61
2022-12-15T19:45:32.585Z,97364.13
2022-12-15T19:48:00.903Z,97369.45
2022-12-15T19:50:36.904Z,97365.88
2022-12-15T19:53:14.351Z,97362.77
2022-12-15T19:55:42.732Z,97364.16
2022-12-15T19:58:32.207Z,97365.54
2022-12-15T20:01:12.391Z,97358.00
2022-12-15T20:03:42.712Z,97349.99
2022-12-15T20:06:18.250Z,97339.52
2022-12-15T20:08:50.610Z,97329.54
2022-12-15T20:11:32.816Z,97323.83
2022-12-15T20:14:02.209Z,97331.65
2022-12-15T20:16:30.479Z,97324.86
2022-12-15T20:18:59.145Z,97320.27
2022-12-15T20:21:33.278Z,97333.42
2022-12-15T20:24:08.933Z,97333.27
2022-12-15T20:26:39.321Z,97327.79
2022-12-15T20:29:25.490Z,97326.77
2022-12-15T20:31:55.349Z,97330.38
2022-12-15T20:34:24.277Z,97341.83
2022-12-15T20:36:52.541Z,97344.79
2022-12-15T20:39:29.282Z,97341.73
2022-12-15T20:41:57.700Z,97342.45
2022-12-15T20:44:25.849Z,97334.65
2022-12-15T20:46:54.860Z,97334.52
2022-12-15T20:49:24.468Z,97327.43
2022-12-15T20:51:52.647Z,97332.05
2022-12-15T20:54:22.881Z,97335.17
2022-12-15T20:56:51.035Z,97325.48
2022-12-15T20:59:19.927Z,97324.87
2022-12-15T21:01:48.594Z,97320.91
2022-12-15T21:04:28.192Z,97316.39
2022-12-15T21:06:57.132Z,97309.98
2022-12-15T21:09:25.288Z,97309.65
2022-12-15T21:11:55.035Z,97313.48
2022-12-15T21:14:24.339Z,97311.14
2022-12-15T21:16:52.526Z,97310.20
2022-12-15T21:19:21.992Z,97310.30
2022-12-15T21:21:55.073Z,97315.42
2022-12-15T21:24:27.689Z,97310.16
2022-12-15T21:26:56.277Z,97304.97
2022-12-15T21:29:28.233Z,97319.75
2022-12-15T21:32:00.637Z,97332.83
2022-12-15T21:34:29.386Z,97330.52
2022-12-15T21:36:58.332Z,97319.24
2022-12-15T21:39:31.127Z,97310.75
2022-12-15T21:42:21.057Z,97311.04
2022-12-15T21:44:49.941Z,97310.74
2022-12-15T21:47:48.936Z,97305.14
2022-12-15T21:50:18.902Z,97300.32
2022-12-15T21:52:48.647Z,97302.15
2022-12-15T21:55:26.126Z,97308.77
2022-12-15T21:57:55.937Z,97304.01
2022-12-15T22:00:25.393Z,97301.56
2022-12-15T22:02:54.371Z,97304.25
2022-12-15T22:05:30.543Z,97292.80
2022-12-15T22:08:10.986Z,97288.59
2022-12-15T22:10:39.841Z,97279.42
2022-12-15T22:13:22.227Z,97274.88
2022-12-15T22:15:54.680Z,97274.52
2022-12-15T22:18:24.072Z,97274.31
2022-12-15T22:20:52.601Z,97276.37
2022-12-15T22:23:21.156Z,97294.73
2022-12-15T22:25:54.699Z,97289.98
2022-12-15T22:28:26.337Z,97281.83
2022-12-15T22:30:56.701Z,97278.46
2022-12-15T22:33:28.325Z,97274.12
2022-12-15T22:35:56.413Z,97265.99
2022-12-15T22:38:25.109Z,97255.02
2022-12-15T22:40:56.777Z,97254.53
2022-12-15T22:43:40.471Z,97250.39
2022-12-15T22:46:14.395Z,97248.24
2022-12-15T22:48:47.585Z,97247.27
2022-12-15T22:51:17.713Z,97258.52
2022-12-15T22:53:46.684Z,97268.41
2022-12-15T22:56:28.385Z,97260.82
2022-12-15T22:59:03.234Z,97258.73
2022-12-15T23:01:31.917Z,97266.46
2022-12-15T23:04:00.537Z,97266.40
2022-12-15T23:06:30.583Z,97253.19
2022-12-15T23:08:59.022Z,97237.23
2022-12-15T23:11:39.676Z,97231.10
2022-12-15T23:14:12.774Z,97218.92
2022-12-15T23:16:42.182Z,97218.84
2022-12-15T23:19:24.194Z,97218.30
2022-12-15T23:21:52.671Z,97213.34
2022-12-15T23:24:21.256Z,97213.10
2022-12-15T23:26:49.621Z,97215.15
2022-12-15T23:29:18.718Z,97213.49
2022-12-15T23:31:47.584Z,97211.75
2022-12-15T23:34:16.604Z,97219.23
2022-12-15T23:36:44.881Z,97210.40
2022-12-15T23:39:13.155Z,97207.55
2022-12-15T23:41:42.168Z,97210.08
2022-12-15T23:44:12.474Z,97213.73
2022-12-15T23:46:40.904Z,97214.98
2022-12-15T23:49:09.334Z,97211.20
2022-12-15T23:51:37.704Z,97209.67
2022-12-15T23:54:06.811Z,97201.58
2022-12-15T23:56:34.847Z,97188.88
2022-12-15T23:59:02.952Z,97185.29
